• Join FlightAware (Why Join?)
  • Login
  • US Flag 
12:38AM EDT


 

Airport Tracker/Info


-or-


 

Live Flight TrackerFlight Track Log ✈ SKW6534 ✈ 19-Apr-2013 ✈ KIDA - KDEN

Flight Track Log - Related Links

Times and Time Zones

All times are in EDT time to prevent confusion due to time zone crossing. See the SKW6534 flight status page for this flight to view local times or setup timezone preferences in your user account.

Time Position Orientation Groundspeed Altitude Reporting Facility
EDT Latitude Longitude Course Direction KTS MPH feet Rate Location/Type
03:27PM 43.4647 -112.0553 145° Southeast 205 236 7,300  Level Salt Lake Center
03:28PM 43.3752 -111.8086 126° Southeast  Level FlightAware Approximate
03:28PM 43.4581 -111.9494 95° East 241 277 10,100  Level Salt Lake Center
03:29PM 43.3019 -111.6728 127° Southeast  Level FlightAware Approximate
03:29PM 43.4114 -111.8608 126° Southeast 281 323 11,800  Level Salt Lake Center
03:30PM 43.2281 -111.5376 127° Southeast  Level FlightAware Approximate
03:30PM 43.3506 -111.7481 127° Southeast 319 367 14,100  Level Salt Lake Center
03:31PM 43.1545 -111.4025 127° Southeast  Level FlightAware Approximate
03:31PM 43.2967 -111.6486 127° Southeast 331 381 16,100  Level Salt Lake Center
03:32PM 43.2292 -111.5250 127° Southeast 350 403 18,200 1,920 Climbing Salt Lake Center
03:33PM 43.1689 -111.4142 127° Southeast 370 426 20,100 1,740 Climbing Salt Lake Center
03:34PM 43.0997 -111.2836 126° Southeast 379 436 21,800 1,260 Climbing Salt Lake Center
03:35PM 43.0353 -111.1669 127° Southeast 399 459 22,800 960 Climbing Salt Lake Center
03:36PM 42.9581 -111.0258 127° Southeast 415 478 23,900 960 Climbing Salt Lake Center
03:37PM 42.8892 -110.8997 127° Southeast 429 494 24,900 900 Climbing Salt Lake Center
03:38PM 42.8197 -110.7753 127° Southeast 431 496 25,800 960 Climbing Salt Lake Center
03:39PM 42.7375 -110.6275 127° Southeast 437 503 26,900 1,020 Climbing Salt Lake Center
03:40PM 42.6561 -110.4836 128° Southeast 443 510 28,000 1,020 Climbing Salt Lake Center
03:41PM 42.5839 -110.3556 127° Southeast 446 513 29,000 900 Climbing Salt Lake Center
03:42PM 42.5119 -110.2267 127° Southeast 449 517 29,900 720 Climbing Salt Lake Center
03:44PM 42.4269 -110.0750 127° Southeast 452 520 30,600 540 Climbing Salt Lake Center
03:45PM 42.3514 -109.9425 128° Southeast 460 529 31,100 480 Climbing Salt Lake Center
03:46PM 42.2631 -109.7889 128° Southeast 464 534 31,600 480 Climbing Salt Lake Center
03:47PM 42.1867 -109.6556 128° Southeast 468 539 32,100 480 Climbing Salt Lake Center
03:48PM 42.0981 -109.4994 127° Southeast 470 541 32,700 420 Climbing Salt Lake Center
03:49PM 42.0203 -109.3667 128° Southeast 471 542 33,000 120 Climbing Salt Lake Center
03:50PM 41.9417 -109.2300 128° Southeast 477 549 33,000  Level Salt Lake Center
03:51PM 41.8472 -109.0686 128° Southeast 486 559 33,000  Level Salt Lake Center
03:52PM 41.7656 -108.9289 128° Southeast 492 566 33,000  Level Salt Lake Center
03:53PM 41.6689 -108.7656 128° Southeast 495 570 33,000  Level Salt Lake Center
03:54PM 41.5858 -108.6250 128° Southeast 499 574 33,000  Level Salt Lake Center
03:55PM 41.5017 -108.4833 128° Southeast 503 579 33,000  Level Salt Lake Center
03:56PM 41.4031 -108.3200 129° Southeast 505 581 33,000  Level Salt Lake Center
03:56PM 41.3592 -108.2478 129° Southeast 506 582 33,000  Level Denver Center
03:57PM 41.2833 -108.0642 119° Southeast 508 585 33,000  Level Denver Center
03:58PM 41.2539 -107.9831 116° Southeast 512 589 33,000  Level Salt Lake Center
03:59PM 41.1883 -107.8253 119° Southeast 510 587 33,000  Level Salt Lake Center
03:59PM 41.1475 -107.7181 117° Southeast 508 585 33,000  Level Denver Center
04:01PM 41.0833 -107.5597 118° Southeast 509 586 33,000  Level Denver Center
04:02PM 41.0208 -107.4000 117° Southeast 510 587 33,000  Level Denver Center
04:03PM 40.9467 -107.2150 118° Southeast 509 586 33,000  Level Denver Center
04:04PM 40.8833 -107.0567 118° Southeast 509 586 33,000  Level Denver Center
04:05PM 40.8081 -106.8714 118° Southeast 512 589 33,000  Level Denver Center
04:06PM 40.7469 -106.7233 119° Southeast 511 588 33,000 -120 Level Denver Center
04:07PM 40.6789 -106.5589 119° Southeast 511 588 32,800 -720 Descending Denver Center
04:08PM 40.6028 -106.3739 118° Southeast 503 579 31,600 -1,380 Descending Denver Center
04:09PM 40.5283 -106.1919 118° Southeast 504 580 30,000 -1,620 Descending Denver Center
04:10PM 40.4653 -106.0447 119° Southeast 488 562 28,300 -1,980 Descending Denver Center
04:11PM 40.4269 -105.8850 107° East 459 528 26,000 -2,100 Descending Denver Center
04:12PM 40.4028 -105.7256 101° East 444 511 24,000 -1,860 Descending Denver Center
04:13PM 40.3744 -105.5536 102° East 414 476 22,200 -1,440 Descending Denver Center
04:14PM 40.3439 -105.4183 106° East 395 455 21,100 -1,500 Descending Denver Center
04:15PM 40.2781 -105.3131 129° Southeast 379 436 19,200 -1,860 Descending Denver Center
04:16PM 40.2103 -105.2067 130° Southeast 354 407 17,300 -1,740 Descending Denver Center
04:17PM 40.1481 -105.1108 130° Southeast 344 396 15,600 -1,440 Descending Denver Center
04:18PM 40.0883 -105.0172 130° Southeast 336 387 14,400 -1,140 Descending Denver Center
04:19PM 40.0256 -104.9203 130° Southeast 326 375 13,300 -900 Descending Denver Center
04:20PM 39.9711 -104.8356 130° Southeast 309 356 12,600 -900 Descending Denver Center
04:21PM 39.8883 -104.8067 165° South 306 352 11,500 -780 Descending Denver Center
04:22PM 39.8128 -104.8086 181° South 267 307 11,000 -480 Descending Denver Center
04:23PM 39.7394 -104.8100 181° South 247 284 10,600 -600 Descending Denver Center
04:24PM 39.6717 -104.8114 181° South 243 280 9,800 -900 Descending Denver Center
04:25PM 39.6439 -104.7392 117° Southeast 239 275 8,800 -840 Descending Denver Center
04:26PM 39.6742 -104.6800 56° Northeast 208 239 8,100 -660 Descending Denver Center
04:27PM 39.7292 -104.6614 15° North 195 224 7,500 -600 Descending Denver Center